sensor_id;sensor_type;location;lat;lon;timestamp;P1;durP1;ratioP1;P2;durP2;ratioP2
43813;SDS011;29669;55.706;37.656;2023-05-10T00:01:34;8.38;;;4.72;;
43813;SDS011;29669;55.706;37.656;2023-05-10T00:04:02;12.43;;;5.32;;
43813;SDS011;29669;55.706;37.656;2023-05-10T00:06:30;11.45;;;5.10;;
43813;SDS011;29669;55.706;37.656;2023-05-10T00:08:59;6.72;;;4.82;;
43813;SDS011;29669;55.706;37.656;2023-05-10T00:11:27;10.10;;;5.15;;
43813;SDS011;29669;55.706;37.656;2023-05-10T00:13:54;11.23;;;5.28;;
43813;SDS011;29669;55.706;37.656;2023-05-10T00:16:22;8.00;;;4.35;;
43813;SDS011;29669;55.706;37.656;2023-05-10T00:18:50;10.65;;;4.63;;
43813;SDS011;29669;55.706;37.656;2023-05-10T00:21:17;10.65;;;4.93;;
43813;SDS011;29669;55.706;37.656;2023-05-10T00:23:45;10.05;;;5.38;;
43813;SDS011;29669;55.706;37.656;2023-05-10T00:26:13;10.68;;;4.60;;
43813;SDS011;29669;55.706;37.656;2023-05-10T00:28:44;13.15;;;4.82;;
43813;SDS011;29669;55.706;37.656;2023-05-10T00:31:12;12.52;;;5.07;;
43813;SDS011;29669;55.706;37.656;2023-05-10T00:33:41;7.78;;;5.07;;
43813;SDS011;29669;55.706;37.656;2023-05-10T00:36:09;7.20;;;5.00;;
43813;SDS011;29669;55.706;37.656;2023-05-10T00:38:36;9.20;;;5.07;;
43813;SDS011;29669;55.706;37.656;2023-05-10T00:41:04;13.55;;;4.78;;
43813;SDS011;29669;55.706;37.656;2023-05-10T00:43:33;6.32;;;3.58;;
43813;SDS011;29669;55.706;37.656;2023-05-10T00:46:01;10.23;;;4.65;;
43813;SDS011;29669;55.706;37.656;2023-05-10T00:48:29;7.32;;;3.83;;
43813;SDS011;29669;55.706;37.656;2023-05-10T00:50:57;8.38;;;4.97;;
43813;SDS011;29669;55.706;37.656;2023-05-10T00:53:25;8.15;;;4.25;;
43813;SDS011;29669;55.706;37.656;2023-05-10T00:55:54;7.25;;;4.50;;
43813;SDS011;29669;55.706;37.656;2023-05-10T00:58:22;16.90;;;4.95;;
43813;SDS011;29669;55.706;37.656;2023-05-10T01:00:51;8.10;;;4.53;;
43813;SDS011;29669;55.706;37.656;2023-05-10T01:03:20;7.32;;;4.00;;
43813;SDS011;29669;55.706;37.656;2023-05-10T01:05:48;9.75;;;4.40;;
43813;SDS011;29669;55.706;37.656;2023-05-10T01:08:17;6.97;;;3.88;;
43813;SDS011;29669;55.706;37.656;2023-05-10T01:10:45;10.90;;;3.72;;
43813;SDS011;29669;55.706;37.656;2023-05-10T01:13:23;6.43;;;4.75;;
43813;SDS011;29669;55.706;37.656;2023-05-10T01:16:00;8.55;;;3.97;;
43813;SDS011;29669;55.706;37.656;2023-05-10T01:18:34;8.48;;;4.30;;
43813;SDS011;29669;55.706;37.656;2023-05-10T01:21:27;8.50;;;3.47;;
43813;SDS011;29669;55.706;37.656;2023-05-10T01:27:02;7.05;;;3.55;;
43813;SDS011;29669;55.706;37.656;2023-05-10T01:35:23;4.72;;;3.47;;
43813;SDS011;29669;55.706;37.656;2023-05-10T01:38:04;5.82;;;3.60;;
43813;SDS011;29669;55.706;37.656;2023-05-10T01:40:40;5.78;;;3.70;;
43813;SDS011;29669;55.706;37.656;2023-05-10T01:43:20;4.63;;;3.05;;
43813;SDS011;29669;55.706;37.656;2023-05-10T01:46:01;9.48;;;3.50;;
43813;SDS011;29669;55.706;37.656;2023-05-10T01:48:38;5.50;;;3.10;;
43813;SDS011;29669;55.706;37.656;2023-05-10T01:51:19;9.27;;;3.08;;
43813;SDS011;29669;55.706;37.656;2023-05-10T01:53:51;4.22;;;3.03;;
43813;SDS011;29669;55.706;37.656;2023-05-10T01:56:26;6.35;;;3.45;;
43813;SDS011;29669;55.706;37.656;2023-05-10T01:58:56;8.07;;;3.42;;
43813;SDS011;29669;55.706;37.656;2023-05-10T02:01:27;4.95;;;3.15;;
43813;SDS011;29669;55.706;37.656;2023-05-10T02:03:59;5.78;;;3.30;;
43813;SDS011;29669;55.706;37.656;2023-05-10T02:06:28;3.95;;;3.20;;
43813;SDS011;29669;55.706;37.656;2023-05-10T02:09:00;7.88;;;3.03;;
43813;SDS011;29669;55.706;37.656;2023-05-10T02:11:29;4.28;;;3.20;;
43813;SDS011;29669;55.706;37.656;2023-05-10T02:13:59;6.40;;;3.45;;
43813;SDS011;29669;55.706;37.656;2023-05-10T02:16:28;5.47;;;3.53;;
43813;SDS011;29669;55.706;37.656;2023-05-10T02:18:59;5.32;;;3.13;;
43813;SDS011;29669;55.706;37.656;2023-05-10T02:21:29;4.85;;;3.38;;
43813;SDS011;29669;55.706;37.656;2023-05-10T02:24:00;5.25;;;2.90;;
43813;SDS011;29669;55.706;37.656;2023-05-10T02:26:30;4.18;;;3.08;;
43813;SDS011;29669;55.706;37.656;2023-05-10T02:29:03;5.30;;;3.38;;
43813;SDS011;29669;55.706;37.656;2023-05-10T02:31:33;6.18;;;3.13;;
43813;SDS011;29669;55.706;37.656;2023-05-10T02:34:04;5.88;;;3.40;;
43813;SDS011;29669;55.706;37.656;2023-05-10T02:36:34;5.07;;;3.17;;
43813;SDS011;29669;55.706;37.656;2023-05-10T02:39:04;5.40;;;3.25;;
43813;SDS011;29669;55.706;37.656;2023-05-10T02:41:37;6.28;;;3.47;;
43813;SDS011;29669;55.706;37.656;2023-05-10T02:44:07;5.45;;;3.38;;
43813;SDS011;29669;55.706;37.656;2023-05-10T02:46:37;5.75;;;3.42;;
43813;SDS011;29669;55.706;37.656;2023-05-10T02:49:05;5.75;;;3.03;;
43813;SDS011;29669;55.706;37.656;2023-05-10T02:51:34;5.18;;;2.80;;
43813;SDS011;29669;55.706;37.656;2023-05-10T02:54:10;6.47;;;3.08;;
43813;SDS011;29669;55.706;37.656;2023-05-10T02:56:42;6.18;;;3.90;;
43813;SDS011;29669;55.706;37.656;2023-05-10T02:59:21;5.00;;;2.97;;
43813;SDS011;29669;55.706;37.656;2023-05-10T03:01:49;6.72;;;3.15;;
43813;SDS011;29669;55.706;37.656;2023-05-10T03:04:17;7.60;;;4.20;;
43813;SDS011;29669;55.706;37.656;2023-05-10T03:06:46;7.03;;;3.20;;
43813;SDS011;29669;55.706;37.656;2023-05-10T03:09:14;3.55;;;2.53;;
43813;SDS011;29669;55.706;37.656;2023-05-10T03:11:56;6.65;;;3.17;;
43813;SDS011;29669;55.706;37.656;2023-05-10T03:20:09;7.55;;;3.30;;
43813;SDS011;29669;55.706;37.656;2023-05-10T03:22:46;12.23;;;3.00;;
43813;SDS011;29669;55.706;37.656;2023-05-10T03:25:17;4.00;;;2.50;;
43813;SDS011;29669;55.706;37.656;2023-05-10T03:27:48;6.82;;;3.80;;
43813;SDS011;29669;55.706;37.656;2023-05-10T03:30:17;4.45;;;2.72;;
43813;SDS011;29669;55.706;37.656;2023-05-10T03:32:45;4.68;;;2.80;;
43813;SDS011;29669;55.706;37.656;2023-05-10T03:35:16;14.93;;;4.70;;
43813;SDS011;29669;55.706;37.656;2023-05-10T03:37:44;5.65;;;3.10;;
43813;SDS011;29669;55.706;37.656;2023-05-10T03:40:12;3.33;;;2.72;;
43813;SDS011;29669;55.706;37.656;2023-05-10T03:42:42;6.05;;;2.88;;
43813;SDS011;29669;55.706;37.656;2023-05-10T03:45:10;8.13;;;3.30;;
43813;SDS011;29669;55.706;37.656;2023-05-10T03:47:38;8.00;;;3.70;;
43813;SDS011;29669;55.706;37.656;2023-05-10T03:50:06;4.28;;;2.90;;
43813;SDS011;29669;55.706;37.656;2023-05-10T03:52:35;4.65;;;2.70;;
43813;SDS011;29669;55.706;37.656;2023-05-10T03:55:02;6.28;;;2.95;;
43813;SDS011;29669;55.706;37.656;2023-05-10T03:57:30;6.70;;;2.50;;
43813;SDS011;29669;55.706;37.656;2023-05-10T03:59:59;5.63;;;3.20;;
43813;SDS011;29669;55.706;37.656;2023-05-10T04:02:30;3.95;;;2.95;;
43813;SDS011;29669;55.706;37.656;2023-05-10T04:04:59;6.00;;;3.17;;
43813;SDS011;29669;55.706;37.656;2023-05-10T04:07:27;6.65;;;2.83;;
43813;SDS011;29669;55.706;37.656;2023-05-10T04:09:56;5.03;;;3.33;;
43813;SDS011;29669;55.706;37.656;2023-05-10T04:12:24;10.27;;;3.20;;
43813;SDS011;29669;55.706;37.656;2023-05-10T04:14:52;4.85;;;2.83;;
43813;SDS011;29669;55.706;37.656;2023-05-10T04:17:20;4.28;;;3.08;;
43813;SDS011;29669;55.706;37.656;2023-05-10T04:19:48;12.73;;;3.58;;
43813;SDS011;29669;55.706;37.656;2023-05-10T04:22:16;5.93;;;3.10;;
43813;SDS011;29669;55.706;37.656;2023-05-10T04:24:43;5.65;;;2.80;;
43813;SDS011;29669;55.706;37.656;2023-05-10T04:27:11;4.78;;;2.83;;
43813;SDS011;29669;55.706;37.656;2023-05-10T04:29:39;4.97;;;3.00;;
43813;SDS011;29669;55.706;37.656;2023-05-10T04:32:06;4.55;;;3.47;;
43813;SDS011;29669;55.706;37.656;2023-05-10T04:34:35;5.22;;;2.88;;
43813;SDS011;29669;55.706;37.656;2023-05-10T04:37:03;9.18;;;3.05;;
43813;SDS011;29669;55.706;37.656;2023-05-10T04:39:31;9.95;;;3.20;;
43813;SDS011;29669;55.706;37.656;2023-05-10T04:41:59;8.45;;;3.50;;
43813;SDS011;29669;55.706;37.656;2023-05-10T04:44:26;8.98;;;3.75;;
43813;SDS011;29669;55.706;37.656;2023-05-10T04:46:54;6.35;;;3.80;;
43813;SDS011;29669;55.706;37.656;2023-05-10T04:49:22;7.15;;;3.33;;
43813;SDS011;29669;55.706;37.656;2023-05-10T04:51:50;5.60;;;3.50;;
43813;SDS011;29669;55.706;37.656;2023-05-10T04:54:18;10.38;;;3.83;;
43813;SDS011;29669;55.706;37.656;2023-05-10T04:56:46;7.93;;;3.70;;
43813;SDS011;29669;55.706;37.656;2023-05-10T04:59:13;6.38;;;3.90;;
43813;SDS011;29669;55.706;37.656;2023-05-10T05:01:41;10.05;;;3.53;;
43813;SDS011;29669;55.706;37.656;2023-05-10T05:04:09;5.22;;;3.58;;
43813;SDS011;29669;55.706;37.656;2023-05-10T05:06:37;13.32;;;4.50;;
43813;SDS011;29669;55.706;37.656;2023-05-10T05:09:05;6.60;;;3.30;;
43813;SDS011;29669;55.706;37.656;2023-05-10T05:11:33;8.85;;;4.07;;
43813;SDS011;29669;55.706;37.656;2023-05-10T05:14:01;9.27;;;3.75;;
43813;SDS011;29669;55.706;37.656;2023-05-10T05:16:30;5.95;;;3.22;;
43813;SDS011;29669;55.706;37.656;2023-05-10T05:18:57;6.35;;;3.08;;
43813;SDS011;29669;55.706;37.656;2023-05-10T05:21:27;6.97;;;3.15;;
43813;SDS011;29669;55.706;37.656;2023-05-10T05:23:54;9.35;;;4.10;;
43813;SDS011;29669;55.706;37.656;2023-05-10T05:26:22;15.90;;;5.57;;
43813;SDS011;29669;55.706;37.656;2023-05-10T05:28:50;4.25;;;3.13;;
43813;SDS011;29669;55.706;37.656;2023-05-10T05:31:20;10.50;;;2.92;;
43813;SDS011;29669;55.706;37.656;2023-05-10T05:33:49;5.45;;;2.80;;
43813;SDS011;29669;55.706;37.656;2023-05-10T05:36:16;7.25;;;3.00;;
43813;SDS011;29669;55.706;37.656;2023-05-10T05:38:44;7.45;;;3.17;;
43813;SDS011;29669;55.706;37.656;2023-05-10T05:41:12;7.32;;;3.13;;
43813;SDS011;29669;55.706;37.656;2023-05-10T05:43:40;5.45;;;3.10;;
43813;SDS011;29669;55.706;37.656;2023-05-10T05:46:07;5.50;;;3.35;;
43813;SDS011;29669;55.706;37.656;2023-05-10T05:48:35;10.52;;;3.58;;
43813;SDS011;29669;55.706;37.656;2023-05-10T05:51:03;6.10;;;2.88;;
43813;SDS011;29669;55.706;37.656;2023-05-10T05:53:33;4.85;;;2.65;;
43813;SDS011;29669;55.706;37.656;2023-05-10T05:56:01;6.43;;;2.88;;
43813;SDS011;29669;55.706;37.656;2023-05-10T05:58:29;8.15;;;2.65;;
43813;SDS011;29669;55.706;37.656;2023-05-10T06:00:57;7.65;;;3.00;;
43813;SDS011;29669;55.706;37.656;2023-05-10T06:03:25;9.40;;;2.90;;
43813;SDS011;29669;55.706;37.656;2023-05-10T06:05:52;4.60;;;2.63;;
43813;SDS011;29669;55.706;37.656;2023-05-10T06:08:20;6.18;;;2.97;;
43813;SDS011;29669;55.706;37.656;2023-05-10T06:10:47;11.75;;;2.75;;
43813;SDS011;29669;55.706;37.656;2023-05-10T06:13:15;4.07;;;2.53;;
43813;SDS011;29669;55.706;37.656;2023-05-10T06:15:43;5.40;;;3.33;;
43813;SDS011;29669;55.706;37.656;2023-05-10T06:18:12;4.50;;;2.72;;
43813;SDS011;29669;55.706;37.656;2023-05-10T06:20:40;2.92;;;2.03;;
43813;SDS011;29669;55.706;37.656;2023-05-10T06:23:09;4.32;;;2.92;;
43813;SDS011;29669;55.706;37.656;2023-05-10T06:25:36;7.53;;;2.42;;
43813;SDS011;29669;55.706;37.656;2023-05-10T06:28:04;4.80;;;2.40;;
43813;SDS011;29669;55.706;37.656;2023-05-10T06:30:32;4.72;;;2.70;;
43813;SDS011;29669;55.706;37.656;2023-05-10T06:32:59;5.28;;;2.95;;
43813;SDS011;29669;55.706;37.656;2023-05-10T06:35:27;5.88;;;2.63;;
43813;SDS011;29669;55.706;37.656;2023-05-10T06:37:55;3.03;;;2.08;;
43813;SDS011;29669;55.706;37.656;2023-05-10T06:40:23;8.43;;;2.60;;
43813;SDS011;29669;55.706;37.656;2023-05-10T06:42:51;3.35;;;2.25;;
43813;SDS011;29669;55.706;37.656;2023-05-10T06:45:18;3.83;;;2.78;;
43813;SDS011;29669;55.706;37.656;2023-05-10T06:47:47;7.13;;;2.78;;
43813;SDS011;29669;55.706;37.656;2023-05-10T06:50:14;4.07;;;2.25;;
43813;SDS011;29669;55.706;37.656;2023-05-10T06:52:42;5.90;;;2.25;;
43813;SDS011;29669;55.706;37.656;2023-05-10T06:55:11;9.23;;;2.50;;
43813;SDS011;29669;55.706;37.656;2023-05-10T06:57:39;8.15;;;3.10;;
43813;SDS011;29669;55.706;37.656;2023-05-10T07:00:07;6.05;;;2.45;;
43813;SDS011;29669;55.706;37.656;2023-05-10T07:02:36;3.25;;;1.80;;
43813;SDS011;29669;55.706;37.656;2023-05-10T07:05:04;5.13;;;2.40;;
43813;SDS011;29669;55.706;37.656;2023-05-10T07:07:33;3.92;;;2.42;;
43813;SDS011;29669;55.706;37.656;2023-05-10T07:10:00;3.45;;;2.60;;
43813;SDS011;29669;55.706;37.656;2023-05-10T07:12:29;5.13;;;2.03;;
43813;SDS011;29669;55.706;37.656;2023-05-10T07:14:58;5.55;;;2.28;;
43813;SDS011;29669;55.706;37.656;2023-05-10T07:17:25;5.05;;;2.42;;
43813;SDS011;29669;55.706;37.656;2023-05-10T07:19:53;5.05;;;2.45;;
43813;SDS011;29669;55.706;37.656;2023-05-10T07:22:21;5.00;;;2.67;;
43813;SDS011;29669;55.706;37.656;2023-05-10T07:24:49;6.35;;;2.60;;
43813;SDS011;29669;55.706;37.656;2023-05-10T07:27:16;3.50;;;2.08;;
43813;SDS011;29669;55.706;37.656;2023-05-10T07:29:44;4.70;;;2.15;;
43813;SDS011;29669;55.706;37.656;2023-05-10T07:32:12;4.07;;;2.20;;
43813;SDS011;29669;55.706;37.656;2023-05-10T07:34:40;2.70;;;2.35;;
43813;SDS011;29669;55.706;37.656;2023-05-10T07:37:08;2.40;;;1.90;;
43813;SDS011;29669;55.706;37.656;2023-05-10T07:39:36;2.70;;;1.90;;
43813;SDS011;29669;55.706;37.656;2023-05-10T07:42:04;2.97;;;2.08;;
43813;SDS011;29669;55.706;37.656;2023-05-10T07:44:32;5.43;;;2.10;;
43813;SDS011;29669;55.706;37.656;2023-05-10T07:47:00;3.30;;;1.98;;
43813;SDS011;29669;55.706;37.656;2023-05-10T07:49:27;3.25;;;2.25;;
43813;SDS011;29669;55.706;37.656;2023-05-10T07:51:55;7.22;;;2.00;;
43813;SDS011;29669;55.706;37.656;2023-05-10T07:54:23;3.45;;;2.40;;
43813;SDS011;29669;55.706;37.656;2023-05-10T07:56:51;3.35;;;2.08;;
43813;SDS011;29669;55.706;37.656;2023-05-10T07:59:18;5.68;;;2.30;;
43813;SDS011;29669;55.706;37.656;2023-05-10T08:01:46;5.35;;;2.15;;
43813;SDS011;29669;55.706;37.656;2023-05-10T08:04:14;6.68;;;2.70;;
43813;SDS011;29669;55.706;37.656;2023-05-10T08:06:46;4.82;;;1.88;;
43813;SDS011;29669;55.706;37.656;2023-05-10T08:09:38;2.10;;;1.90;;
43813;SDS011;29669;55.706;37.656;2023-05-10T08:12:06;2.92;;;2.08;;
43813;SDS011;29669;55.706;37.656;2023-05-10T08:14:33;3.40;;;2.17;;
43813;SDS011;29669;55.706;37.656;2023-05-10T08:17:03;3.38;;;2.05;;
43813;SDS011;29669;55.706;37.656;2023-05-10T08:19:31;6.80;;;1.90;;
43813;SDS011;29669;55.706;37.656;2023-05-10T08:21:59;5.60;;;2.47;;
43813;SDS011;29669;55.706;37.656;2023-05-10T08:24:26;5.03;;;2.10;;
43813;SDS011;29669;55.706;37.656;2023-05-10T08:26:54;6.85;;;2.70;;
43813;SDS011;29669;55.706;37.656;2023-05-10T08:29:22;4.22;;;2.30;;
43813;SDS011;29669;55.706;37.656;2023-05-10T08:31:51;10.88;;;3.90;;
43813;SDS011;29669;55.706;37.656;2023-05-10T08:34:19;3.70;;;2.33;;
43813;SDS011;29669;55.706;37.656;2023-05-10T08:36:46;9.38;;;2.60;;
43813;SDS011;29669;55.706;37.656;2023-05-10T08:39:14;3.90;;;2.00;;
43813;SDS011;29669;55.706;37.656;2023-05-10T08:41:53;3.28;;;2.00;;
43813;SDS011;29669;55.706;37.656;2023-05-10T08:44:24;3.28;;;1.95;;
43813;SDS011;29669;55.706;37.656;2023-05-10T08:46:53;5.28;;;2.20;;
43813;SDS011;29669;55.706;37.656;2023-05-10T08:49:21;2.78;;;1.90;;
43813;SDS011;29669;55.706;37.656;2023-05-10T08:51:52;7.82;;;3.25;;
43813;SDS011;29669;55.706;37.656;2023-05-10T08:54:23;5.82;;;2.63;;
43813;SDS011;29669;55.706;37.656;2023-05-10T08:56:51;3.35;;;2.10;;
43813;SDS011;29669;55.706;37.656;2023-05-10T08:59:20;8.20;;;2.50;;
43813;SDS011;29669;55.706;37.656;2023-05-10T09:01:48;4.00;;;2.33;;
43813;SDS011;29669;55.706;37.656;2023-05-10T09:04:18;2.75;;;1.92;;
43813;SDS011;29669;55.706;37.656;2023-05-10T09:06:46;4.07;;;2.10;;
43813;SDS011;29669;55.706;37.656;2023-05-10T09:09:14;4.55;;;1.80;;
43813;SDS011;29669;55.706;37.656;2023-05-10T09:11:43;3.42;;;2.17;;
43813;SDS011;29669;55.706;37.656;2023-05-10T09:14:12;3.38;;;2.15;;
43813;SDS011;29669;55.706;37.656;2023-05-10T09:16:40;3.08;;;2.00;;
43813;SDS011;29669;55.706;37.656;2023-05-10T09:19:08;4.82;;;2.72;;
43813;SDS011;29669;55.706;37.656;2023-05-10T09:21:37;4.10;;;2.65;;
43813;SDS011;29669;55.706;37.656;2023-05-10T09:24:06;5.20;;;2.47;;
43813;SDS011;29669;55.706;37.656;2023-05-10T09:26:35;8.13;;;2.10;;
43813;SDS011;29669;55.706;37.656;2023-05-10T09:29:12;7.15;;;2.78;;
43813;SDS011;29669;55.706;37.656;2023-05-10T09:31:50;3.60;;;2.38;;
43813;SDS011;29669;55.706;37.656;2023-05-10T09:36:59;6.75;;;2.22;;
43813;SDS011;29669;55.706;37.656;2023-05-10T09:41:59;2.92;;;2.28;;
43813;SDS011;29669;55.706;37.656;2023-05-10T09:44:31;3.50;;;2.15;;
43813;SDS011;29669;55.706;37.656;2023-05-10T09:47:03;9.30;;;3.70;;
43813;SDS011;29669;55.706;37.656;2023-05-10T09:49:31;4.53;;;2.70;;
43813;SDS011;29669;55.706;37.656;2023-05-10T09:52:01;5.32;;;2.53;;
43813;SDS011;29669;55.706;37.656;2023-05-10T09:54:35;3.30;;;2.65;;
43813;SDS011;29669;55.706;37.656;2023-05-10T09:57:03;6.32;;;3.55;;
43813;SDS011;29669;55.706;37.656;2023-05-10T09:59:32;5.82;;;3.03;;
43813;SDS011;29669;55.706;37.656;2023-05-10T10:02:02;6.50;;;3.22;;
43813;SDS011;29669;55.706;37.656;2023-05-10T10:04:29;6.18;;;2.55;;
43813;SDS011;29669;55.706;37.656;2023-05-10T10:07:01;4.82;;;2.45;;
43813;SDS011;29669;55.706;37.656;2023-05-10T10:09:30;6.35;;;2.88;;
43813;SDS011;29669;55.706;37.656;2023-05-10T10:11:59;6.78;;;3.30;;
43813;SDS011;29669;55.706;37.656;2023-05-10T10:14:28;6.40;;;3.63;;
43813;SDS011;29669;55.706;37.656;2023-05-10T10:16:56;11.82;;;3.00;;
43813;SDS011;29669;55.706;37.656;2023-05-10T10:19:33;3.38;;;2.85;;
43813;SDS011;29669;55.706;37.656;2023-05-10T10:22:03;6.35;;;3.85;;
43813;SDS011;29669;55.706;37.656;2023-05-10T10:24:31;3.33;;;2.63;;
43813;SDS011;29669;55.706;37.656;2023-05-10T10:35:23;3.42;;;2.85;;
43813;SDS011;29669;55.706;37.656;2023-05-10T10:37:51;13.30;;;4.45;;
43813;SDS011;29669;55.706;37.656;2023-05-10T10:51:37;5.20;;;2.60;;
43813;SDS011;29669;55.706;37.656;2023-05-10T10:54:10;6.38;;;3.45;;
43813;SDS011;29669;55.706;37.656;2023-05-10T10:56:38;2.55;;;2.22;;
43813;SDS011;29669;55.706;37.656;2023-05-10T10:59:06;6.95;;;2.63;;
43813;SDS011;29669;55.706;37.656;2023-05-10T11:01:35;4.78;;;3.30;;
43813;SDS011;29669;55.706;37.656;2023-05-10T11:06:35;3.53;;;2.78;;
43813;SDS011;29669;55.706;37.656;2023-05-10T11:09:09;4.93;;;2.95;;
43813;SDS011;29669;55.706;37.656;2023-05-10T11:14:20;7.00;;;3.30;;
43813;SDS011;29669;55.706;37.656;2023-05-10T11:16:49;7.47;;;3.13;;
43813;SDS011;29669;55.706;37.656;2023-05-10T11:19:18;5.68;;;2.83;;
43813;SDS011;29669;55.706;37.656;2023-05-10T11:21:50;3.55;;;2.47;;
43813;SDS011;29669;55.706;37.656;2023-05-10T11:24:38;4.35;;;2.40;;
43813;SDS011;29669;55.706;37.656;2023-05-10T11:27:05;6.30;;;3.72;;
43813;SDS011;29669;55.706;37.656;2023-05-10T11:29:33;10.73;;;3.50;;
43813;SDS011;29669;55.706;37.656;2023-05-10T11:32:02;4.82;;;2.40;;
43813;SDS011;29669;55.706;37.656;2023-05-10T11:34:35;6.53;;;2.70;;
43813;SDS011;29669;55.706;37.656;2023-05-10T11:37:03;5.35;;;2.47;;
43813;SDS011;29669;55.706;37.656;2023-05-10T11:39:31;3.53;;;1.90;;
43813;SDS011;29669;55.706;37.656;2023-05-10T11:42:00;5.90;;;2.15;;
43813;SDS011;29669;55.706;37.656;2023-05-10T11:44:32;6.18;;;3.50;;
43813;SDS011;29669;55.706;37.656;2023-05-10T11:47:00;4.20;;;3.38;;
43813;SDS011;29669;55.706;37.656;2023-05-10T11:49:28;4.88;;;2.33;;
43813;SDS011;29669;55.706;37.656;2023-05-10T11:52:03;5.28;;;2.67;;
43813;SDS011;29669;55.706;37.656;2023-05-10T11:54:34;4.65;;;2.40;;
43813;SDS011;29669;55.706;37.656;2023-05-10T11:57:02;4.40;;;2.65;;
43813;SDS011;29669;55.706;37.656;2023-05-10T11:59:30;5.95;;;3.10;;
43813;SDS011;29669;55.706;37.656;2023-05-10T12:01:58;4.18;;;2.35;;
43813;SDS011;29669;55.706;37.656;2023-05-10T12:04:27;5.57;;;3.35;;
43813;SDS011;29669;55.706;37.656;2023-05-10T12:06:56;5.07;;;3.35;;
43813;SDS011;29669;55.706;37.656;2023-05-10T12:09:24;8.85;;;3.55;;
43813;SDS011;29669;55.706;37.656;2023-05-10T12:12:06;3.08;;;2.40;;
43813;SDS011;29669;55.706;37.656;2023-05-10T12:14:34;2.47;;;2.22;;
43813;SDS011;29669;55.706;37.656;2023-05-10T12:17:03;5.35;;;2.70;;
43813;SDS011;29669;55.706;37.656;2023-05-10T12:19:37;4.55;;;2.72;;
43813;SDS011;29669;55.706;37.656;2023-05-10T12:22:05;9.30;;;3.63;;
43813;SDS011;29669;55.706;37.656;2023-05-10T12:24:34;10.43;;;3.08;;
43813;SDS011;29669;55.706;37.656;2023-05-10T12:27:07;2.95;;;1.92;;
43813;SDS011;29669;55.706;37.656;2023-05-10T12:29:35;3.15;;;2.38;;
43813;SDS011;29669;55.706;37.656;2023-05-10T12:32:04;8.18;;;3.35;;
43813;SDS011;29669;55.706;37.656;2023-05-10T12:34:35;4.28;;;2.60;;
43813;SDS011;29669;55.706;37.656;2023-05-10T12:37:06;4.57;;;2.27;;
43813;SDS011;29669;55.706;37.656;2023-05-10T12:39:40;5.38;;;2.42;;
43813;SDS011;29669;55.706;37.656;2023-05-10T12:44:36;26.92;;;4.10;;
43813;SDS011;29669;55.706;37.656;2023-05-10T12:47:04;12.25;;;3.58;;
43813;SDS011;29669;55.706;37.656;2023-05-10T12:49:32;5.40;;;3.55;;
43813;SDS011;29669;55.706;37.656;2023-05-10T12:52:01;6.50;;;2.90;;
43813;SDS011;29669;55.706;37.656;2023-05-10T12:54:28;4.93;;;2.50;;
43813;SDS011;29669;55.706;37.656;2023-05-10T12:56:56;11.48;;;4.18;;
43813;SDS011;29669;55.706;37.656;2023-05-10T12:59:24;13.00;;;3.90;;
43813;SDS011;29669;55.706;37.656;2023-05-10T13:01:52;5.53;;;3.00;;
43813;SDS011;29669;55.706;37.656;2023-05-10T13:04:20;4.78;;;2.35;;
43813;SDS011;29669;55.706;37.656;2023-05-10T13:06:47;3.85;;;2.83;;
43813;SDS011;29669;55.706;37.656;2023-05-10T13:09:15;8.98;;;2.60;;
43813;SDS011;29669;55.706;37.656;2023-05-10T13:11:43;9.38;;;2.58;;
43813;SDS011;29669;55.706;37.656;2023-05-10T13:14:11;3.40;;;2.40;;
43813;SDS011;29669;55.706;37.656;2023-05-10T13:16:38;12.50;;;3.50;;
43813;SDS011;29669;55.706;37.656;2023-05-10T13:19:06;6.00;;;3.60;;
43813;SDS011;29669;55.706;37.656;2023-05-10T13:21:34;8.38;;;3.08;;
43813;SDS011;29669;55.706;37.656;2023-05-10T13:24:02;3.83;;;2.53;;
43813;SDS011;29669;55.706;37.656;2023-05-10T13:26:30;4.63;;;2.65;;
43813;SDS011;29669;55.706;37.656;2023-05-10T13:28:57;6.88;;;4.60;;
43813;SDS011;29669;55.706;37.656;2023-05-10T13:31:25;8.18;;;3.08;;
43813;SDS011;29669;55.706;37.656;2023-05-10T13:33:53;3.65;;;2.85;;
43813;SDS011;29669;55.706;37.656;2023-05-10T13:36:21;4.28;;;3.10;;
43813;SDS011;29669;55.706;37.656;2023-05-10T13:38:49;3.25;;;2.28;;
43813;SDS011;29669;55.706;37.656;2023-05-10T13:41:17;6.30;;;2.45;;
43813;SDS011;29669;55.706;37.656;2023-05-10T13:43:45;4.00;;;2.20;;
43813;SDS011;29669;55.706;37.656;2023-05-10T13:46:12;6.95;;;3.70;;
43813;SDS011;29669;55.706;37.656;2023-05-10T13:48:40;7.60;;;3.63;;
43813;SDS011;29669;55.706;37.656;2023-05-10T13:51:08;7.35;;;3.10;;
43813;SDS011;29669;55.706;37.656;2023-05-10T13:53:36;3.20;;;2.35;;
43813;SDS011;29669;55.706;37.656;2023-05-10T13:56:03;4.80;;;2.22;;
43813;SDS011;29669;55.706;37.656;2023-05-10T13:58:31;5.55;;;3.90;;
43813;SDS011;29669;55.706;37.656;2023-05-10T14:00:59;3.13;;;2.60;;
43813;SDS011;29669;55.706;37.656;2023-05-10T14:03:27;8.43;;;2.50;;
43813;SDS011;29669;55.706;37.656;2023-05-10T14:05:55;2.53;;;2.17;;
43813;SDS011;29669;55.706;37.656;2023-05-10T14:08:22;2.75;;;2.13;;
43813;SDS011;29669;55.706;37.656;2023-05-10T14:10:50;13.20;;;4.28;;
43813;SDS011;29669;55.706;37.656;2023-05-10T14:13:19;5.63;;;3.58;;
43813;SDS011;29669;55.706;37.656;2023-05-10T14:15:47;6.90;;;3.42;;
43813;SDS011;29669;55.706;37.656;2023-05-10T14:18:14;5.25;;;3.33;;
43813;SDS011;29669;55.706;37.656;2023-05-10T14:20:42;10.30;;;3.70;;
43813;SDS011;29669;55.706;37.656;2023-05-10T14:23:10;3.83;;;2.85;;
43813;SDS011;29669;55.706;37.656;2023-05-10T14:25:41;4.95;;;2.95;;
43813;SDS011;29669;55.706;37.656;2023-05-10T14:28:10;13.65;;;7.43;;
43813;SDS011;29669;55.706;37.656;2023-05-10T14:30:38;6.43;;;3.05;;
43813;SDS011;29669;55.706;37.656;2023-05-10T14:33:05;3.10;;;2.50;;
43813;SDS011;29669;55.706;37.656;2023-05-10T14:35:34;3.55;;;2.40;;
43813;SDS011;29669;55.706;37.656;2023-05-10T14:38:03;6.55;;;3.70;;
43813;SDS011;29669;55.706;37.656;2023-05-10T14:40:31;7.55;;;3.15;;
43813;SDS011;29669;55.706;37.656;2023-05-10T14:42:59;9.15;;;4.32;;
43813;SDS011;29669;55.706;37.656;2023-05-10T14:45:27;5.97;;;2.53;;
43813;SDS011;29669;55.706;37.656;2023-05-10T14:47:54;11.48;;;3.60;;
43813;SDS011;29669;55.706;37.656;2023-05-10T14:50:22;12.38;;;4.00;;
43813;SDS011;29669;55.706;37.656;2023-05-10T14:53:02;7.45;;;3.00;;
43813;SDS011;29669;55.706;37.656;2023-05-10T14:55:30;6.07;;;3.50;;
43813;SDS011;29669;55.706;37.656;2023-05-10T14:57:58;9.13;;;3.47;;
43813;SDS011;29669;55.706;37.656;2023-05-10T15:00:26;8.48;;;3.20;;
43813;SDS011;29669;55.706;37.656;2023-05-10T15:02:55;6.22;;;2.88;;
43813;SDS011;29669;55.706;37.656;2023-05-10T15:05:23;6.13;;;2.75;;
43813;SDS011;29669;55.706;37.656;2023-05-10T15:07:51;10.75;;;4.85;;
43813;SDS011;29669;55.706;37.656;2023-05-10T15:10:18;8.18;;;2.97;;
43813;SDS011;29669;55.706;37.656;2023-05-10T15:12:46;6.63;;;3.38;;
43813;SDS011;29669;55.706;37.656;2023-05-10T15:15:14;5.72;;;3.05;;
43813;SDS011;29669;55.706;37.656;2023-05-10T15:17:42;9.27;;;2.88;;
43813;SDS011;29669;55.706;37.656;2023-05-10T15:20:11;12.85;;;4.20;;
43813;SDS011;29669;55.706;37.656;2023-05-10T15:22:39;9.30;;;5.50;;
43813;SDS011;29669;55.706;37.656;2023-05-10T15:25:07;12.88;;;6.25;;
43813;SDS011;29669;55.706;37.656;2023-05-10T15:27:35;16.58;;;4.85;;
43813;SDS011;29669;55.706;37.656;2023-05-10T15:30:03;9.35;;;3.47;;
43813;SDS011;29669;55.706;37.656;2023-05-10T15:32:31;4.53;;;2.70;;